Weather

Weather Information Services

Current METAR and TAF for Sabadell Airport (LELL).

LELL 270330Z AUTO 27008KT CAVOK 15/07 Q1010

TAF LELL 270200Z 2703/2803 VRB03KT 9999 FEW025 TX25/2712Z TN12/2705Z TEMPO 2712/2716 13010KT

Current METAR and TAF for Gerona Airport (LEGE).

LEGE 270330Z VRB02KT CAVOK 11/11 Q1009

TAF LEGE 261700Z 2618/2718 17010KT 9999 FEW040 TX25/2713Z TN11/2706Z PROB30 TEMPO 2618/2620 02010KT BECMG 2620/2622 VRB04KT BECMG 2711/2713 17010KT TEMPO 2712/2718 FEW025TCU

Current METAR and TAF for Reus Airport (LERS).

LERS 270330Z AUTO 29013G24KT 260V320 CAVOK 17/08 Q1010

TAF TAF LERS 270200Z 2703/2803 29010KT 9999 FEW050 TX26/2712Z TN15/2705Z PROB40 TEMPO 2708/2721 30022G35KT BECMG 2722/2724 29005KT

Current METAR and TAF for Lleida Airport (LEDA).

LEDA 270330Z AUTO 26012KT CAVOK 13/08 Q1011

TAF LEDA 270200Z 2703/2803 28010KT 9999 FEW040 TX25/2713Z TN13/2705Z TEMPO 2708/2719 30020G30KT

Other amazing weather tools for weather forecast

Ventusky Wind and Temperature Maps

https://www.estofex.org/

Here you have some local Meteo Websites you can check, when flying in Catalunya:

RAW and Decoded METARS
https://e6bx.com/weather/LELL/?showDecoded=1&focuspoint=pressurealt